createdAt,value
2018-08-22T00:04:06.319Z,20.10
2018-08-22T00:09:35.533Z,20.10
2018-08-22T00:15:04.883Z,20.00
2018-08-22T00:20:34.840Z,20.00
2018-08-22T00:26:06.159Z,19.90
2018-08-22T00:31:35.331Z,19.90
2018-08-22T00:37:04.540Z,19.80
2018-08-22T00:42:33.718Z,19.80
2018-08-22T00:48:02.924Z,19.70
2018-08-22T00:53:32.137Z,19.60
2018-08-22T00:59:01.311Z,19.60
2018-08-22T01:04:30.482Z,19.40
2018-08-22T01:10:00.699Z,19.40
2018-08-22T01:15:29.870Z,19.30
2018-08-22T01:20:59.133Z,19.20
2018-08-22T01:26:28.333Z,19.20
2018-08-22T01:31:57.613Z,19.10
2018-08-22T01:37:26.835Z,19.10
2018-08-22T01:42:56.095Z,19.00
2018-08-22T01:48:25.313Z,18.90
2018-08-22T01:53:54.487Z,18.90
2018-08-22T01:59:23.662Z,18.80
2018-08-22T02:04:53.705Z,18.70
2018-08-22T02:10:23.628Z,18.70
2018-08-22T02:15:52.797Z,18.60
2018-08-22T02:21:21.954Z,18.60
2018-08-22T02:26:51.212Z,18.50
2018-08-22T02:32:20.417Z,18.40
2018-08-22T02:37:49.663Z,18.30
2018-08-22T02:43:18.898Z,18.30
2018-08-22T02:48:54.330Z,18.20
2018-08-22T02:54:23.540Z,18.10
2018-08-22T02:59:52.764Z,18.00
2018-08-22T03:05:21.971Z,18.10
2018-08-22T03:10:51.196Z,18.00
2018-08-22T03:16:20.545Z,17.90
2018-08-22T03:21:49.807Z,17.90
2018-08-22T03:27:19.072Z,17.90
2018-08-22T03:32:48.378Z,17.80
2018-08-22T03:38:17.628Z,17.70
2018-08-22T03:43:46.812Z,17.60
2018-08-22T03:49:16.028Z,17.60
2018-08-22T03:54:45.347Z,17.60
2018-08-22T04:00:14.623Z,17.50
2018-08-22T04:05:43.895Z,17.50
2018-08-22T04:11:13.249Z,17.40
2018-08-22T04:16:42.548Z,17.40
2018-08-22T04:22:11.912Z,17.30
2018-08-22T04:27:41.265Z,17.30
2018-08-22T04:33:11.659Z,17.30
2018-08-22T04:38:40.976Z,17.30
2018-08-22T04:44:10.441Z,17.20
2018-08-22T04:49:40.339Z,17.30
2018-08-22T04:55:09.649Z,17.30
2018-08-22T05:00:39.045Z,17.40
2018-08-22T05:06:08.392Z,17.40
2018-08-22T05:11:37.624Z,17.50
2018-08-22T05:17:06.904Z,17.70
2018-08-22T05:22:36.144Z,17.90
2018-08-22T05:28:05.428Z,18.00
2018-08-22T05:33:34.651Z,18.20
2018-08-22T05:39:06.367Z,18.40
2018-08-22T05:44:35.553Z,18.60
2018-08-22T05:50:05.254Z,18.80
2018-08-22T05:55:34.469Z,19.00
2018-08-22T06:01:03.740Z,19.30
2018-08-22T06:06:32.940Z,19.50
2018-08-22T06:12:02.132Z,19.70
2018-08-22T06:17:31.361Z,20.00
2018-08-22T06:23:00.667Z,20.30
2018-08-22T06:28:30.260Z,20.50
2018-08-22T06:33:59.577Z,20.80
2018-08-22T06:39:28.828Z,21.10
2018-08-22T06:44:58.160Z,21.40
2018-08-22T06:50:38.976Z,21.70
2018-08-22T06:56:08.712Z,21.90
2018-08-22T07:01:38.045Z,22.30
2018-08-22T07:07:07.370Z,22.50
2018-08-22T07:12:36.960Z,22.80
2018-08-22T07:18:06.268Z,23.10
2018-08-22T07:23:35.509Z,23.40
2018-08-22T07:29:04.786Z,23.60
2018-08-22T07:34:33.995Z,23.90
2018-08-22T07:40:03.238Z,24.10
2018-08-22T07:45:32.467Z,24.30
2018-08-22T07:51:01.648Z,24.60
2018-08-22T07:56:31.141Z,24.80
2018-08-22T08:02:01.687Z,25.10
2018-08-22T08:07:30.666Z,25.30
2018-08-22T08:13:00.167Z,25.50
2018-08-22T08:18:29.616Z,25.70
2018-08-22T08:23:59.124Z,25.90
2018-08-22T08:29:28.492Z,26.10
2018-08-22T08:34:57.841Z,26.20
2018-08-22T08:40:27.131Z,26.50
2018-08-22T08:45:56.477Z,26.70
2018-08-22T08:51:25.698Z,26.80
2018-08-22T08:56:56.756Z,26.90
2018-08-22T09:02:25.998Z,27.20
2018-08-22T09:07:55.758Z,27.30
2018-08-22T09:13:25.035Z,27.50
2018-08-22T09:18:54.501Z,27.60
2018-08-22T09:24:24.807Z,27.80
2018-08-22T09:29:54.032Z,28.00
2018-08-22T09:35:23.226Z,28.30
2018-08-22T09:40:52.447Z,28.50
2018-08-22T09:46:21.719Z,28.70
2018-08-22T09:51:51.025Z,28.80
2018-08-22T09:57:20.324Z,29.00
2018-08-22T10:02:49.612Z,29.10
2018-08-22T10:08:18.923Z,29.30
2018-08-22T10:13:48.131Z,29.60
2018-08-22T10:19:17.355Z,29.80
2018-08-22T10:24:46.608Z,29.50
2018-08-22T10:30:15.890Z,29.70
2018-08-22T10:35:45.145Z,30.00
2018-08-22T10:41:14.550Z,30.10
2018-08-22T10:46:43.887Z,30.50
2018-08-22T10:52:13.208Z,30.80
2018-08-22T10:57:42.909Z,31.00
2018-08-22T11:03:12.445Z,31.00
2018-08-22T11:08:41.899Z,30.90
2018-08-22T11:14:11.195Z,30.70
2018-08-22T11:19:40.729Z,30.90
2018-08-22T11:25:26.969Z,31.00
2018-08-22T11:31:13.275Z,31.20
2018-08-22T11:36:49.277Z,31.00
2018-08-22T11:42:18.614Z,31.10
2018-08-22T11:47:47.885Z,31.40
2018-08-22T11:53:17.108Z,31.70
2018-08-22T11:58:46.295Z,31.20
2018-08-22T12:04:15.601Z,31.00
2018-08-22T12:09:44.912Z,31.30
2018-08-22T12:15:14.759Z,31.60
2018-08-22T12:20:44.083Z,31.60
2018-08-22T12:26:13.560Z,31.80
2018-08-22T12:31:42.894Z,31.50
2018-08-22T12:37:12.228Z,31.10
2018-08-22T12:42:41.550Z,31.10
2018-08-22T12:48:10.842Z,31.40
2018-08-22T12:53:40.924Z,31.50
2018-08-22T12:59:10.261Z,31.50
2018-08-22T13:04:39.624Z,31.60
2018-08-22T13:10:08.971Z,31.80
2018-08-22T13:15:39.360Z,31.80
2018-08-22T13:21:08.889Z,32.00
2018-08-22T13:26:38.313Z,31.90
2018-08-22T13:32:08.000Z,32.10
2018-08-22T13:37:37.372Z,31.90
2018-08-22T13:43:06.812Z,31.90
2018-08-22T13:48:36.063Z,32.10
2018-08-22T13:54:05.320Z,32.30
2018-08-22T13:59:34.559Z,32.00
2018-08-22T14:05:03.796Z,32.10
2018-08-22T14:10:32.969Z,32.20
2018-08-22T14:16:03.260Z,32.50
2018-08-22T14:21:32.424Z,32.80
2018-08-22T14:27:02.967Z,33.70
2018-08-22T14:32:32.894Z,36.20
2018-08-22T14:38:02.168Z,39.60
2018-08-22T14:43:31.441Z,42.00
2018-08-22T14:49:00.873Z,43.20
2018-08-22T14:54:30.314Z,44.20
2018-08-22T15:00:00.064Z,44.70
2018-08-22T15:05:31.367Z,45.10
2018-08-22T15:11:00.718Z,43.10
2018-08-22T15:16:29.970Z,39.20
2018-08-22T15:21:59.262Z,36.70
2018-08-22T15:27:28.521Z,35.70
2018-08-22T15:32:57.708Z,34.70
2018-08-22T15:38:26.956Z,34.40
2018-08-22T15:43:56.283Z,33.50
2018-08-22T15:49:25.493Z,34.50
2018-08-22T15:55:11.281Z,34.30
2018-08-22T16:00:57.926Z,33.20
2018-08-22T16:06:32.651Z,32.50
2018-08-22T16:12:01.944Z,32.10
2018-08-22T16:17:32.233Z,31.70
2018-08-22T16:23:01.620Z,31.40
2018-08-22T16:28:50.196Z,31.10
2018-08-22T16:34:19.689Z,30.80
2018-08-22T16:39:49.120Z,30.60
2018-08-22T16:45:19.027Z,30.50
2018-08-22T16:50:49.726Z,30.40
2018-08-22T16:56:19.462Z,30.30
2018-08-22T17:01:50.807Z,30.00
2018-08-22T17:07:20.033Z,29.90
2018-08-22T17:12:56.940Z,29.70
2018-08-22T17:18:26.770Z,29.60
2018-08-22T17:23:56.125Z,29.50
2018-08-22T17:29:25.452Z,29.50
2018-08-22T17:34:54.740Z,29.30
2018-08-22T17:40:24.006Z,29.20
2018-08-22T17:45:53.284Z,29.10
2018-08-22T17:51:22.656Z,29.00
2018-08-22T17:57:09.569Z,29.00
2018-08-22T18:02:39.292Z,28.80
2018-08-22T18:08:09.993Z,28.70
2018-08-22T18:13:39.582Z,28.60
2018-08-22T18:19:09.098Z,28.50
2018-08-22T18:24:46.213Z,28.30
2018-08-22T18:30:15.662Z,28.10
2018-08-22T18:35:47.347Z,27.90
2018-08-22T18:41:16.880Z,27.70
2018-08-22T18:46:47.067Z,27.50
2018-08-22T18:52:21.128Z,27.40
2018-08-22T18:57:50.476Z,27.20
2018-08-22T19:03:19.811Z,27.00
2018-08-22T19:08:49.063Z,26.90
2018-08-22T19:14:37.713Z,26.70
2018-08-22T19:20:07.143Z,26.50
2018-08-22T19:25:36.710Z,26.30
2018-08-22T19:31:07.025Z,26.10
2018-08-22T19:36:41.163Z,25.90
2018-08-22T19:42:11.502Z,25.70
2018-08-22T19:47:41.840Z,25.50
2018-08-22T19:53:11.265Z,25.40
2018-08-22T19:58:40.614Z,25.20
2018-08-22T20:04:10.012Z,25.10
2018-08-22T20:09:42.619Z,25.00
2018-08-22T20:15:12.463Z,24.80
2018-08-22T20:20:41.913Z,24.70
2018-08-22T20:26:11.322Z,24.60
2018-08-22T20:31:41.203Z,24.40
2018-08-22T20:37:11.739Z,24.30
2018-08-22T20:42:41.333Z,24.10
2018-08-22T20:48:12.583Z,24.00
2018-08-22T20:53:42.179Z,23.90
2018-08-22T20:59:11.656Z,23.70
2018-08-22T21:04:41.269Z,23.60
2018-08-22T21:10:10.976Z,23.50
2018-08-22T21:15:40.388Z,23.30
2018-08-22T21:21:15.094Z,23.20
2018-08-22T21:26:46.532Z,23.20
2018-08-22T21:32:15.788Z,23.10
2018-08-22T21:37:45.127Z,23.00
2018-08-22T21:43:14.500Z,22.80
2018-08-22T21:48:43.883Z,22.80
2018-08-22T21:54:13.835Z,22.70
2018-08-22T21:59:43.192Z,22.60
2018-08-22T22:05:13.088Z,22.50
2018-08-22T22:10:42.475Z,22.40
2018-08-22T22:16:11.802Z,22.40
2018-08-22T22:21:41.373Z,22.30
2018-08-22T22:27:10.777Z,22.20
2018-08-22T22:32:40.199Z,22.10
2018-08-22T22:38:11.172Z,22.10
2018-08-22T22:43:40.637Z,22.00
2018-08-22T22:49:10.115Z,21.90
2018-08-22T22:54:39.696Z,21.90
2018-08-22T23:00:11.187Z,21.80
2018-08-22T23:05:40.542Z,21.70
2018-08-22T23:11:09.983Z,21.70
2018-08-22T23:16:39.238Z,21.60
2018-08-22T23:22:08.702Z,21.50
2018-08-22T23:27:38.903Z,21.40
2018-08-22T23:33:08.316Z,21.40
2018-08-22T23:38:39.566Z,21.30
2018-08-22T23:44:08.857Z,21.30
2018-08-22T23:49:42.264Z,21.20
2018-08-22T23:55:11.755Z,21.20
